createdAt,value
2023-02-22T00:01:47.567Z,5.28
2023-02-22T00:04:16.072Z,5.22
2023-02-22T00:06:42.695Z,5.19
2023-02-22T00:09:10.360Z,5.15
2023-02-22T00:11:38.663Z,5.13
2023-02-22T00:14:05.701Z,5.11
2023-02-22T00:16:32.395Z,5.10
2023-02-22T00:18:58.994Z,5.03
2023-02-22T00:21:25.714Z,5.02
2023-02-22T00:23:54.725Z,5.00
2023-02-22T00:26:23.540Z,4.97
2023-02-22T00:28:52.900Z,4.88
2023-02-22T00:31:20.280Z,4.84
2023-02-22T00:33:47.472Z,4.82
2023-02-22T00:36:14.400Z,4.82
2023-02-22T00:38:41.969Z,4.80
2023-02-22T00:41:09.174Z,4.76
2023-02-22T00:43:35.964Z,4.74
2023-02-22T00:46:02.874Z,4.72
2023-02-22T00:48:29.654Z,4.69
2023-02-22T00:50:56.576Z,4.65
2023-02-22T00:53:25.202Z,4.58
2023-02-22T00:55:52.833Z,4.58
2023-02-22T00:58:19.816Z,4.54
2023-02-22T01:00:46.568Z,4.54
2023-02-22T01:03:17.517Z,4.52
2023-02-22T01:05:44.536Z,4.46
2023-02-22T01:08:13.549Z,4.48
2023-02-22T01:10:40.237Z,4.43
2023-02-22T01:13:12.592Z,4.35
2023-02-22T01:15:42.535Z,4.34
2023-02-22T01:18:09.961Z,4.31
2023-02-22T01:20:36.649Z,4.27
2023-02-22T01:23:06.566Z,4.28
2023-02-22T01:25:34.535Z,4.25
2023-02-22T01:28:02.366Z,4.20
2023-02-22T01:30:32.922Z,4.20
2023-02-22T01:33:00.246Z,4.15
2023-02-22T01:35:30.238Z,4.11
2023-02-22T01:37:58.410Z,4.11
2023-02-22T01:40:29.681Z,4.08
2023-02-22T01:43:00.562Z,4.03
2023-02-22T01:45:30.203Z,4.02
2023-02-22T01:48:01.103Z,3.99
2023-02-22T01:50:29.189Z,3.95
2023-02-22T01:52:56.027Z,3.95
2023-02-22T01:55:23.369Z,3.93
2023-02-22T01:57:52.988Z,3.88
2023-02-22T02:00:21.517Z,3.88
2023-02-22T02:02:54.905Z,3.83
2023-02-22T02:05:21.683Z,3.82
2023-02-22T02:07:49.404Z,3.80
2023-02-22T02:10:16.118Z,3.76
2023-02-22T02:12:46.700Z,3.73
2023-02-22T02:15:31.844Z,3.73
2023-02-22T02:18:04.756Z,3.71
2023-02-22T02:20:50.026Z,3.66
2023-02-22T02:23:44.362Z,3.65
2023-02-22T02:26:29.061Z,3.62
2023-02-22T02:29:23.348Z,3.61
2023-02-22T02:32:11.219Z,3.59
2023-02-22T02:35:07.615Z,3.58
2023-02-22T02:37:37.656Z,3.58
2023-02-22T02:40:17.941Z,3.53
2023-02-22T02:42:53.382Z,3.54
2023-02-22T02:45:28.185Z,3.52
2023-02-22T02:48:00.015Z,3.50
2023-02-22T02:50:36.421Z,3.50
2023-02-22T02:53:06.949Z,3.48
2023-02-22T02:55:36.658Z,3.45
2023-02-22T02:58:07.887Z,3.45
2023-02-22T03:00:39.574Z,3.44
2023-02-22T03:03:23.062Z,3.44
2023-02-22T03:06:51.722Z,3.41
2023-02-22T03:09:38.603Z,3.36
2023-02-22T03:12:34.776Z,3.34
2023-02-22T03:15:46.088Z,3.25
2023-02-22T03:18:29.265Z,3.27
2023-02-22T03:21:05.266Z,3.27
2023-02-22T03:23:33.865Z,3.26
2023-02-22T03:26:07.813Z,3.26
2023-02-22T03:28:35.189Z,3.23
2023-02-22T03:31:07.928Z,3.22
2023-02-22T03:33:46.165Z,3.22
2023-02-22T03:36:22.435Z,3.22
2023-02-22T03:38:50.117Z,3.18
2023-02-22T03:41:24.070Z,3.19
2023-02-22T03:43:54.610Z,3.13
2023-02-22T03:46:22.472Z,3.09
2023-02-22T03:48:57.310Z,3.07
2023-02-22T03:51:24.672Z,3.08
2023-02-22T03:53:52.233Z,3.03
2023-02-22T03:56:36.024Z,3.05
2023-02-22T03:59:08.943Z,3.06
2023-02-22T04:01:36.304Z,3.07
2023-02-22T04:04:03.302Z,3.06
2023-02-22T04:06:30.079Z,3.05
2023-02-22T04:08:56.699Z,3.04
2023-02-22T04:11:23.592Z,3.02
2023-02-22T04:13:50.165Z,3.02
2023-02-22T04:16:16.913Z,3.00
2023-02-22T04:18:43.560Z,3.01
2023-02-22T04:21:10.168Z,3.00
2023-02-22T04:23:36.798Z,2.99
2023-02-22T04:26:03.595Z,2.96
2023-02-22T04:28:30.230Z,2.92
2023-02-22T04:30:56.872Z,2.91
2023-02-22T04:33:23.749Z,2.92
2023-02-22T04:35:51.670Z,2.91
2023-02-22T04:38:18.489Z,2.93
2023-02-22T04:40:45.336Z,2.90
2023-02-22T04:43:11.919Z,2.86
2023-02-22T04:45:38.525Z,2.87
2023-02-22T04:48:05.226Z,2.86
2023-02-22T04:50:31.782Z,2.85
2023-02-22T04:52:58.315Z,2.81
2023-02-22T04:55:24.888Z,2.82
2023-02-22T04:57:51.501Z,2.80
2023-02-22T05:00:21.588Z,2.79
2023-02-22T05:02:49.539Z,2.78
2023-02-22T05:05:19.114Z,2.76
2023-02-22T05:07:45.680Z,2.74
2023-02-22T05:10:12.357Z,2.73
2023-02-22T05:12:38.933Z,2.68
2023-02-22T05:15:08.028Z,2.68
2023-02-22T05:17:36.168Z,2.65
2023-02-22T05:20:04.640Z,2.66
2023-02-22T05:22:31.182Z,2.60
2023-02-22T05:24:57.749Z,2.60
2023-02-22T05:27:24.400Z,2.60
2023-02-22T05:29:50.975Z,2.62
2023-02-22T05:32:17.619Z,2.60
2023-02-22T05:34:44.198Z,2.60
2023-02-22T05:37:10.734Z,2.58
2023-02-22T05:39:37.363Z,2.57
2023-02-22T05:42:04.098Z,2.56
2023-02-22T05:44:30.899Z,2.56
2023-02-22T05:46:57.467Z,2.54
2023-02-22T05:49:24.031Z,2.51
2023-02-22T05:51:50.603Z,2.51
2023-02-22T05:54:17.309Z,2.51
2023-02-22T05:56:43.942Z,2.49
2023-02-22T05:59:10.521Z,2.49
2023-02-22T06:01:37.192Z,2.49
2023-02-22T06:04:03.854Z,2.46
2023-02-22T06:06:30.435Z,2.41
2023-02-22T06:08:57.052Z,2.42
2023-02-22T06:11:23.704Z,2.41
2023-02-22T06:13:52.013Z,2.39
2023-02-22T06:16:21.485Z,2.39
2023-02-22T06:18:48.494Z,2.38
2023-02-22T06:21:15.286Z,2.38
2023-02-22T06:23:42.032Z,2.35
2023-02-22T06:26:08.637Z,2.36
2023-02-22T06:28:35.361Z,2.35
2023-02-22T06:31:01.904Z,2.33
2023-02-22T06:33:28.482Z,2.33
2023-02-22T06:35:55.177Z,2.31
2023-02-22T06:38:26.243Z,2.34
2023-02-22T06:40:52.826Z,2.33
2023-02-22T06:43:19.495Z,2.32
2023-02-22T06:45:46.495Z,2.33
2023-02-22T06:48:13.645Z,2.34
2023-02-22T06:50:40.192Z,2.33
2023-02-22T06:53:06.929Z,2.28
2023-02-22T06:55:34.783Z,2.30
2023-02-22T06:58:03.065Z,2.31
2023-02-22T07:00:32.125Z,2.31
2023-02-22T07:02:59.838Z,2.31
2023-02-22T07:05:27.564Z,2.33
2023-02-22T07:07:56.152Z,2.33
2023-02-22T07:10:28.999Z,2.33
2023-02-22T07:12:55.624Z,2.34
2023-02-22T07:15:24.534Z,2.36
2023-02-22T07:17:52.488Z,4.14
2023-02-22T07:20:20.774Z,3.12
2023-02-22T07:22:48.673Z,2.79
2023-02-22T07:25:15.276Z,2.70
2023-02-22T07:27:42.727Z,2.62
2023-02-22T07:30:16.162Z,2.63
2023-02-22T07:32:43.972Z,2.60
2023-02-22T07:35:19.255Z,2.61
2023-02-22T07:37:45.863Z,2.59
2023-02-22T07:40:12.943Z,2.59
2023-02-22T07:43:25.704Z,2.60
2023-02-22T07:45:55.232Z,2.62
2023-02-22T07:48:23.590Z,2.61
2023-02-22T07:50:50.995Z,2.50
2023-02-22T07:53:21.468Z,2.62
2023-02-22T07:55:51.041Z,2.63
2023-02-22T07:58:20.783Z,2.69
2023-02-22T08:00:48.511Z,2.75
2023-02-22T08:03:17.754Z,2.77
2023-02-22T08:05:49.887Z,2.71
2023-02-22T08:08:18.796Z,2.73
2023-02-22T08:10:47.234Z,2.79
2023-02-22T08:13:13.986Z,2.86
2023-02-22T08:15:42.940Z,2.90
2023-02-22T08:18:13.745Z,2.95
2023-02-22T08:20:42.515Z,2.99
2023-02-22T08:23:10.596Z,3.02
2023-02-22T08:25:37.623Z,3.07
2023-02-22T08:28:10.027Z,3.14
2023-02-22T08:30:40.280Z,3.17
2023-02-22T08:33:07.574Z,3.21
2023-02-22T08:35:34.810Z,3.25
2023-02-22T08:38:07.085Z,3.31
2023-02-22T08:40:36.768Z,3.34
2023-02-22T08:43:04.510Z,3.42
2023-02-22T08:45:31.190Z,3.47
2023-02-22T08:47:59.571Z,3.63
2023-02-22T08:50:29.575Z,4.16
2023-02-22T08:52:59.443Z,3.92
2023-02-22T08:55:30.524Z,3.88
2023-02-22T08:57:57.144Z,3.91
2023-02-22T09:00:25.381Z,3.96
2023-02-22T09:02:53.143Z,4.02
2023-02-22T09:05:20.285Z,4.11
2023-02-22T09:07:46.957Z,4.15
2023-02-22T09:10:19.672Z,4.20
2023-02-22T09:12:46.231Z,4.34
2023-02-22T09:15:13.179Z,4.37
2023-02-22T09:17:39.880Z,4.44
2023-02-22T09:20:08.858Z,4.51
2023-02-22T09:22:35.492Z,4.59
2023-02-22T09:25:11.424Z,4.67
2023-02-22T09:27:43.688Z,4.81
2023-02-22T09:30:19.349Z,4.88
2023-02-22T09:32:46.258Z,4.95
2023-02-22T09:35:13.124Z,5.02
2023-02-22T09:37:39.999Z,5.08
2023-02-22T09:40:10.105Z,5.28
2023-02-22T09:42:49.827Z,5.33
2023-02-22T09:45:24.006Z,5.41
2023-02-22T09:47:58.597Z,5.60
2023-02-22T09:50:37.211Z,5.65
2023-02-22T09:53:12.459Z,5.76
2023-02-22T09:55:50.675Z,5.82
2023-02-22T09:58:33.554Z,5.99
2023-02-22T10:01:29.404Z,6.05
2023-02-22T10:04:14.169Z,6.17
2023-02-22T10:06:52.766Z,6.17
2023-02-22T10:09:19.356Z,6.27
2023-02-22T10:12:01.145Z,6.29
2023-02-22T10:14:46.120Z,6.44
2023-02-22T10:17:33.416Z,6.64
2023-02-22T10:20:18.903Z,6.69
2023-02-22T10:22:51.575Z,6.78
2023-02-22T10:25:27.502Z,6.88
2023-02-22T10:28:31.052Z,7.00
2023-02-22T10:31:04.485Z,6.99
2023-02-22T10:33:41.939Z,7.08
2023-02-22T10:36:19.371Z,7.11
2023-02-22T10:38:59.113Z,7.22
2023-02-22T10:41:34.577Z,7.34
2023-02-22T10:44:03.067Z,7.46
2023-02-22T10:46:32.114Z,7.50
2023-02-22T10:49:04.532Z,7.55
2023-02-22T10:51:31.100Z,7.72
2023-02-22T10:54:13.063Z,7.72
2023-02-22T10:56:55.603Z,7.79
2023-02-22T10:59:28.518Z,7.85
2023-02-22T11:01:55.141Z,7.89
2023-02-22T11:04:22.830Z,8.01
2023-02-22T11:07:27.340Z,8.18
2023-02-22T11:09:59.379Z,8.24
2023-02-22T11:12:38.216Z,8.32
2023-02-22T11:15:25.509Z,8.47
2023-02-22T11:17:55.870Z,8.51
2023-02-22T11:20:34.528Z,8.52
2023-02-22T11:23:04.740Z,8.61
2023-02-22T11:25:42.642Z,8.70
2023-02-22T11:28:20.828Z,8.68
2023-02-22T11:30:51.913Z,8.78
2023-02-22T11:33:26.152Z,8.85
2023-02-22T11:36:02.443Z,8.94
2023-02-22T11:38:32.012Z,9.02
2023-02-22T11:41:14.555Z,9.17
2023-02-22T11:43:43.136Z,9.24
2023-02-22T11:46:26.388Z,9.30
2023-02-22T11:49:04.652Z,9.50
2023-02-22T11:51:43.155Z,9.52
2023-02-22T11:54:25.413Z,9.55
2023-02-22T11:56:57.461Z,9.62
2023-02-22T11:59:36.605Z,9.75
2023-02-22T12:02:30.670Z,9.76
2023-02-22T12:05:19.903Z,9.83
2023-02-22T12:08:05.266Z,9.99
2023-02-22T12:10:40.214Z,10.07
2023-02-22T12:13:27.175Z,10.15
2023-02-22T12:16:32.548Z,10.24
2023-02-22T12:19:11.488Z,10.35
2023-02-22T12:21:43.795Z,10.41
2023-02-22T12:24:16.549Z,10.40
2023-02-22T12:26:55.412Z,10.48
2023-02-22T12:29:39.573Z,10.63
2023-02-22T12:32:06.112Z,10.74
2023-02-22T12:34:50.211Z,10.76
2023-02-22T12:37:22.213Z,10.82
2023-02-22T12:39:59.751Z,10.86
2023-02-22T12:42:50.009Z,10.92
2023-02-22T12:45:35.943Z,11.01
2023-02-22T12:48:27.353Z,11.04
2023-02-22T12:50:59.389Z,11.06
2023-02-22T12:53:31.275Z,11.14
2023-02-22T12:56:22.487Z,11.19
2023-02-22T12:59:05.626Z,11.20
2023-02-22T13:01:42.282Z,11.27
2023-02-22T13:04:20.536Z,11.26
2023-02-22T13:07:33.639Z,11.32
2023-02-22T13:10:06.793Z,11.34
2023-02-22T13:13:21.584Z,11.33
2023-02-22T13:16:15.961Z,11.34
2023-02-22T13:18:52.552Z,11.38
2023-02-22T13:21:44.763Z,11.40
2023-02-22T13:24:51.066Z,11.49
2023-02-22T13:27:26.050Z,11.57
2023-02-22T13:29:58.884Z,11.66
2023-02-22T13:32:43.798Z,11.64
2023-02-22T13:35:40.561Z,11.60
2023-02-22T13:38:28.619Z,11.63
2023-02-22T13:41:37.270Z,11.66
2023-02-22T13:44:16.593Z,11.72
2023-02-22T13:46:52.608Z,11.82
2023-02-22T13:49:19.171Z,11.82
2023-02-22T13:51:56.831Z,11.92
2023-02-22T13:54:35.530Z,11.97
2023-02-22T13:57:05.387Z,12.04
2023-02-22T13:59:33.307Z,12.08
2023-02-22T14:02:06.923Z,12.19
2023-02-22T14:04:38.236Z,12.27
2023-02-22T14:07:25.916Z,13.81
2023-02-22T14:09:56.100Z,12.97
2023-02-22T14:12:33.505Z,12.61
2023-02-22T14:15:28.691Z,12.49
2023-02-22T14:18:04.275Z,12.47
2023-02-22T14:20:36.840Z,12.41
2023-02-22T14:23:37.469Z,12.45
2023-02-22T14:26:25.887Z,12.38
2023-02-22T14:29:15.469Z,12.40
2023-02-22T14:31:45.213Z,12.39
2023-02-22T14:34:41.376Z,12.43
2023-02-22T14:37:14.206Z,12.31
2023-02-22T14:39:51.026Z,12.35
2023-02-22T14:42:38.390Z,12.39
2023-02-22T14:45:30.178Z,12.48
2023-02-22T14:48:24.950Z,12.53
2023-02-22T14:50:53.657Z,12.56
2023-02-22T14:53:38.361Z,12.64
2023-02-22T14:56:14.473Z,12.64
2023-02-22T14:58:51.672Z,12.56
2023-02-22T15:01:47.475Z,12.66
2023-02-22T15:04:28.069Z,12.73
2023-02-22T15:06:56.631Z,12.71
2023-02-22T15:09:28.871Z,12.73
2023-02-22T15:12:05.958Z,12.75
2023-02-22T15:14:37.831Z,12.75
2023-02-22T15:17:19.869Z,12.71
2023-02-22T15:19:48.577Z,12.75
2023-02-22T15:22:24.132Z,12.82
2023-02-22T15:25:02.404Z,12.81
2023-02-22T15:27:29.766Z,12.74
2023-02-22T15:29:59.146Z,12.62
2023-02-22T15:32:36.742Z,12.76
2023-02-22T15:35:26.243Z,12.66
2023-02-22T15:38:16.218Z,12.65
2023-02-22T15:40:43.157Z,12.72
2023-02-22T15:43:19.453Z,12.63
2023-02-22T15:45:46.432Z,12.69
2023-02-22T15:48:14.584Z,12.71
2023-02-22T15:51:00.753Z,12.69
2023-02-22T15:53:32.148Z,12.75
2023-02-22T15:56:01.362Z,12.65
2023-02-22T15:58:30.038Z,12.51
2023-02-22T16:01:02.773Z,12.71
2023-02-22T16:03:38.751Z,12.49
2023-02-22T16:06:10.840Z,12.64
2023-02-22T16:09:11.614Z,12.70
2023-02-22T16:11:44.314Z,12.70
2023-02-22T16:14:39.987Z,12.70
2023-02-22T16:17:49.505Z,12.68
2023-02-22T16:20:24.944Z,12.68
2023-02-22T16:22:51.681Z,12.69
2023-02-22T16:25:18.268Z,12.68
2023-02-22T16:27:50.068Z,12.67
2023-02-22T16:30:25.934Z,12.65
2023-02-22T16:32:55.451Z,12.66
2023-02-22T16:35:29.078Z,12.66
2023-02-22T16:38:00.420Z,12.64
2023-02-22T16:40:32.293Z,12.60
2023-02-22T16:43:21.255Z,12.60
2023-02-22T16:45:47.973Z,12.58
2023-02-22T16:48:23.475Z,12.56
2023-02-22T16:50:51.647Z,12.53
2023-02-22T16:53:21.043Z,12.52
2023-02-22T16:55:49.066Z,12.49
2023-02-22T16:58:17.484Z,12.47
2023-02-22T17:00:44.100Z,12.44
2023-02-22T17:03:15.561Z,12.41
2023-02-22T17:05:42.327Z,12.39
2023-02-22T17:08:12.109Z,12.36
2023-02-22T17:10:38.729Z,12.33
2023-02-22T17:13:21.610Z,12.31
2023-02-22T17:15:49.801Z,12.25
2023-02-22T17:18:22.579Z,12.23
2023-02-22T17:20:51.023Z,12.12
2023-02-22T17:23:17.737Z,12.14
2023-02-22T17:25:59.291Z,12.13
2023-02-22T17:28:26.535Z,12.11
2023-02-22T17:30:54.753Z,12.09
2023-02-22T17:33:26.815Z,12.07
2023-02-22T17:35:55.870Z,11.93
2023-02-22T17:38:23.008Z,11.96
2023-02-22T17:40:52.167Z,11.95
2023-02-22T17:43:19.481Z,11.93
2023-02-22T17:45:46.972Z,11.90
2023-02-22T17:48:14.799Z,11.85
2023-02-22T17:50:42.793Z,11.74
2023-02-22T17:53:11.202Z,11.59
2023-02-22T17:55:42.482Z,11.66
2023-02-22T17:58:14.824Z,11.58
2023-02-22T18:00:45.270Z,11.54
2023-02-22T18:03:16.192Z,11.46
2023-02-22T18:05:46.235Z,11.39
2023-02-22T18:08:13.761Z,11.32
2023-02-22T18:10:42.381Z,11.40
2023-02-22T18:13:09.756Z,11.13
2023-02-22T18:15:39.806Z,11.08
2023-02-22T18:18:06.476Z,11.22
2023-02-22T18:20:38.532Z,11.27
2023-02-22T18:23:09.992Z,11.14
2023-02-22T18:25:36.988Z,11.05
2023-02-22T18:28:08.138Z,11.13
2023-02-22T18:30:37.175Z,11.16
2023-02-22T18:33:04.424Z,10.94
2023-02-22T18:35:31.779Z,10.91
2023-02-22T18:37:58.469Z,11.01
2023-02-22T18:40:25.100Z,11.06
2023-02-22T18:42:51.702Z,11.05
2023-02-22T18:45:19.389Z,11.05
2023-02-22T18:47:46.003Z,11.04
2023-02-22T18:50:14.163Z,11.03
2023-02-22T18:52:46.817Z,11.01
2023-02-22T18:55:19.703Z,10.99
2023-02-22T18:57:47.238Z,10.97
2023-02-22T19:00:19.408Z,10.95
2023-02-22T19:02:46.000Z,10.91
2023-02-22T19:05:13.489Z,10.89
2023-02-22T19:07:40.448Z,10.88
2023-02-22T19:10:07.660Z,10.85
2023-02-22T19:12:34.522Z,10.82
2023-02-22T19:15:01.736Z,10.79
2023-02-22T19:17:31.137Z,10.76
2023-02-22T19:19:58.075Z,10.73
2023-02-22T19:22:26.390Z,10.69
2023-02-22T19:24:54.343Z,10.66
2023-02-22T19:27:22.059Z,10.62
2023-02-22T19:29:49.471Z,10.58
2023-02-22T19:32:17.775Z,10.54
2023-02-22T19:34:44.907Z,10.52
2023-02-22T19:37:13.116Z,10.48
2023-02-22T19:39:43.428Z,10.45
2023-02-22T19:42:11.548Z,10.42
2023-02-22T19:44:40.013Z,10.39
2023-02-22T19:47:10.441Z,10.36
2023-02-22T19:49:37.865Z,10.34
2023-02-22T19:52:06.621Z,10.31
2023-02-22T19:54:33.740Z,10.26
2023-02-22T19:57:00.559Z,10.24
2023-02-22T19:59:27.877Z,10.20
2023-02-22T20:01:55.568Z,10.00
2023-02-22T20:04:23.041Z,10.08
2023-02-22T20:06:54.309Z,10.08
2023-02-22T20:09:24.033Z,10.07
2023-02-22T20:11:54.274Z,10.05
2023-02-22T20:14:24.216Z,10.04
2023-02-22T20:16:55.511Z,10.02
2023-02-22T20:19:26.746Z,9.99
2023-02-22T20:21:57.878Z,9.96
2023-02-22T20:24:25.148Z,9.94
2023-02-22T20:26:55.585Z,9.93
2023-02-22T20:29:29.389Z,9.92
2023-02-22T20:31:56.773Z,9.86
2023-02-22T20:34:26.026Z,9.82
2023-02-22T20:36:52.972Z,9.81
2023-02-22T20:39:19.526Z,9.81
2023-02-22T20:41:46.521Z,9.77
2023-02-22T20:44:15.944Z,9.57
2023-02-22T20:46:43.432Z,9.68
2023-02-22T20:49:13.197Z,9.69
2023-02-22T20:51:40.473Z,9.69
2023-02-22T20:54:11.204Z,9.67
2023-02-22T20:56:43.549Z,9.63
2023-02-22T20:59:15.023Z,9.63
2023-02-22T21:01:42.246Z,9.62
2023-02-22T21:04:10.104Z,9.60
2023-02-22T21:06:38.192Z,9.57
2023-02-22T21:09:08.908Z,9.50
2023-02-22T21:11:36.386Z,9.52
2023-02-22T21:14:03.673Z,9.50
2023-02-22T21:16:33.693Z,9.51
2023-02-22T21:19:02.651Z,9.47
2023-02-22T21:21:29.575Z,9.47
2023-02-22T21:23:57.821Z,9.47
2023-02-22T21:26:29.612Z,9.44
2023-02-22T21:29:00.517Z,9.32
2023-02-22T21:31:28.211Z,9.26
2023-02-22T21:33:58.292Z,9.24
2023-02-22T21:36:26.565Z,9.13
2023-02-22T21:38:55.951Z,9.24
2023-02-22T21:41:27.860Z,9.18
2023-02-22T21:43:56.463Z,9.23
2023-02-22T21:46:24.040Z,9.23
2023-02-22T21:48:50.845Z,9.21
2023-02-22T21:51:26.545Z,9.15
2023-02-22T21:53:54.716Z,9.18
2023-02-22T21:56:27.165Z,9.18
2023-02-22T21:58:59.448Z,9.15
2023-02-22T22:01:31.345Z,9.16
2023-02-22T22:04:00.132Z,9.16
2023-02-22T22:06:28.241Z,9.16
2023-02-22T22:08:55.752Z,9.15
2023-02-22T22:11:22.987Z,9.02
2023-02-22T22:13:49.732Z,9.07
2023-02-22T22:16:18.640Z,9.10
2023-02-22T22:18:46.858Z,9.11
2023-02-22T22:21:20.975Z,9.10
2023-02-22T22:23:48.115Z,9.09
2023-02-22T22:26:17.034Z,8.98
2023-02-22T22:28:49.347Z,9.00
2023-02-22T22:31:17.730Z,9.00
2023-02-22T22:33:45.573Z,8.87
2023-02-22T22:36:14.149Z,8.82
2023-02-22T22:38:40.755Z,8.90
2023-02-22T22:41:09.239Z,8.73
2023-02-22T22:43:37.170Z,8.86
2023-02-22T22:46:05.493Z,8.89
2023-02-22T22:48:36.122Z,8.91
2023-02-22T22:51:06.702Z,8.91
2023-02-22T22:53:34.467Z,8.91
2023-02-22T22:56:08.568Z,8.90
2023-02-22T22:58:35.913Z,8.90
2023-02-22T23:01:06.427Z,8.89
2023-02-22T23:03:36.958Z,8.81
2023-02-22T23:06:04.899Z,8.83
2023-02-22T23:08:43.267Z,8.84
2023-02-22T23:11:13.134Z,8.85
2023-02-22T23:13:39.888Z,8.81
2023-02-22T23:16:12.126Z,8.80
2023-02-22T23:18:43.343Z,8.64
2023-02-22T23:21:10.752Z,8.68
2023-02-22T23:23:38.101Z,8.67
2023-02-22T23:26:18.234Z,8.60
2023-02-22T23:28:47.810Z,8.68
2023-02-22T23:31:17.236Z,8.70
2023-02-22T23:33:48.234Z,8.71
2023-02-22T23:36:16.444Z,8.66
2023-02-22T23:38:43.758Z,8.69
2023-02-22T23:41:13.296Z,8.70
2023-02-22T23:43:40.546Z,8.59
2023-02-22T23:46:18.681Z,8.61
2023-02-22T23:48:54.521Z,8.54
2023-02-22T23:51:26.356Z,8.59
2023-02-22T23:53:55.811Z,8.60
2023-02-22T23:56:25.558Z,8.61
2023-02-22T23:58:52.746Z,8.65
